sensor_id;sensor_type;location;lat;lon;timestamp;P1;durP1;ratioP1;P2;durP2;ratioP2
18399;SDS011;9326;49.468;11.008;2023-06-24T05:02:17;7.00;;;5.60;;
18399;SDS011;9326;49.468;11.008;2023-06-24T05:04:44;6.27;;;5.67;;
18399;SDS011;9326;49.468;11.008;2023-06-24T05:07:11;6.90;;;6.20;;
18399;SDS011;9326;49.468;11.008;2023-06-24T05:09:38;6.67;;;5.90;;
18399;SDS011;9326;49.468;11.008;2023-06-24T05:12:06;5.93;;;5.37;;
18399;SDS011;9326;49.468;11.008;2023-06-24T05:14:34;6.77;;;6.07;;
18399;SDS011;9326;49.468;11.008;2023-06-24T05:17:01;5.97;;;5.47;;
18399;SDS011;9326;49.468;11.008;2023-06-24T05:19:29;6.63;;;5.93;;
18399;SDS011;9326;49.468;11.008;2023-06-24T05:21:56;6.37;;;5.27;;
18399;SDS011;9326;49.468;11.008;2023-06-24T05:24:23;7.80;;;5.43;;
18399;SDS011;9326;49.468;11.008;2023-06-24T05:26:51;6.10;;;5.50;;
18399;SDS011;9326;49.468;11.008;2023-06-24T05:29:18;6.13;;;5.53;;
18399;SDS011;9326;49.468;11.008;2023-06-24T05:31:45;6.97;;;5.60;;
18399;SDS011;9326;49.468;11.008;2023-06-24T05:34:12;6.10;;;5.50;;
18399;SDS011;9326;49.468;11.008;2023-06-24T05:36:40;5.80;;;5.20;;
18399;SDS011;9326;49.468;11.008;2023-06-24T05:39:08;7.13;;;5.63;;
18399;SDS011;9326;49.468;11.008;2023-06-24T05:41:36;5.90;;;5.30;;
18399;SDS011;9326;49.468;11.008;2023-06-24T05:44:03;7.03;;;5.37;;
18399;SDS011;9326;49.468;11.008;2023-06-24T05:46:30;5.30;;;4.80;;
18399;SDS011;9326;49.468;11.008;2023-06-24T05:48:58;5.90;;;5.30;;
18399;SDS011;9326;49.468;11.008;2023-06-24T05:51:25;6.50;;;5.43;;
18399;SDS011;9326;49.468;11.008;2023-06-24T05:53:53;6.73;;;5.30;;
18399;SDS011;9326;49.468;11.008;2023-06-24T05:56:20;5.63;;;5.13;;
18399;SDS011;9326;49.468;11.008;2023-06-24T05:58:48;5.70;;;4.87;;
18399;SDS011;9326;49.468;11.008;2023-06-24T06:01:15;5.30;;;4.80;;
18399;SDS011;9326;49.468;11.008;2023-06-24T06:03:42;5.33;;;4.67;;
18399;SDS011;9326;49.468;11.008;2023-06-24T06:06:09;5.27;;;4.43;;
18399;SDS011;9326;49.468;11.008;2023-06-24T06:08:36;5.67;;;4.57;;
18399;SDS011;9326;49.468;11.008;2023-06-24T06:11:04;5.23;;;4.73;;
18399;SDS011;9326;49.468;11.008;2023-06-24T06:13:31;4.67;;;4.27;;
18399;SDS011;9326;49.468;11.008;2023-06-24T06:15:58;4.63;;;4.23;;
18399;SDS011;9326;49.468;11.008;2023-06-24T06:18:25;4.37;;;3.90;;
18399;SDS011;9326;49.468;11.008;2023-06-24T06:20:52;4.10;;;3.70;;
18399;SDS011;9326;49.468;11.008;2023-06-24T06:23:20;4.10;;;3.70;;
18399;SDS011;9326;49.468;11.008;2023-06-24T06:25:47;4.53;;;4.13;;
18399;SDS011;9326;49.468;11.008;2023-06-24T06:28:15;4.03;;;3.63;;
18399;SDS011;9326;49.468;11.008;2023-06-24T06:30:42;3.87;;;3.50;;
18399;SDS011;9326;49.468;11.008;2023-06-24T06:33:09;4.03;;;3.63;;
18399;SDS011;9326;49.468;11.008;2023-06-24T06:35:36;4.60;;;4.20;;
18399;SDS011;9326;49.468;11.008;2023-06-24T06:38:04;4.50;;;3.53;;
18399;SDS011;9326;49.468;11.008;2023-06-24T06:40:31;4.37;;;3.97;;
18399;SDS011;9326;49.468;11.008;2023-06-24T06:42:58;4.87;;;3.93;;
18399;SDS011;9326;49.468;11.008;2023-06-24T06:45:26;4.47;;;4.07;;
18399;SDS011;9326;49.468;11.008;2023-06-24T06:47:53;4.47;;;4.07;;
18399;SDS011;9326;49.468;11.008;2023-06-24T06:50:20;5.40;;;4.20;;
18399;SDS011;9326;49.468;11.008;2023-06-24T06:52:47;3.83;;;3.53;;
18399;SDS011;9326;49.468;11.008;2023-06-24T06:55:14;3.87;;;3.57;;
18399;SDS011;9326;49.468;11.008;2023-06-24T06:57:41;4.30;;;3.90;;
18399;SDS011;9326;49.468;11.008;2023-06-24T07:00:09;4.00;;;3.50;;
18399;SDS011;9326;49.468;11.008;2023-06-24T07:02:37;4.67;;;4.17;;
18399;SDS011;9326;49.468;11.008;2023-06-24T07:05:04;4.20;;;3.40;;
18399;SDS011;9326;49.468;11.008;2023-06-24T07:07:31;5.13;;;4.00;;
18399;SDS011;9326;49.468;11.008;2023-06-24T07:09:58;4.20;;;3.90;;
18399;SDS011;9326;49.468;11.008;2023-06-24T07:12:25;4.43;;;4.10;;
18399;SDS011;9326;49.468;11.008;2023-06-24T07:14:52;4.73;;;4.10;;
18399;SDS011;9326;49.468;11.008;2023-06-24T07:17:19;4.20;;;3.80;;
18399;SDS011;9326;49.468;11.008;2023-06-24T07:19:48;4.00;;;3.70;;
18399;SDS011;9326;49.468;11.008;2023-06-24T07:22:15;4.13;;;3.80;;
18399;SDS011;9326;49.468;11.008;2023-06-24T07:24:42;4.20;;;3.90;;
18399;SDS011;9326;49.468;11.008;2023-06-24T07:27:09;4.30;;;4.00;;
18399;SDS011;9326;49.468;11.008;2023-06-24T07:29:36;4.60;;;4.00;;
18399;SDS011;9326;49.468;11.008;2023-06-24T07:32:03;4.00;;;3.60;;
18399;SDS011;9326;49.468;11.008;2023-06-24T07:34:32;4.40;;;4.00;;
18399;SDS011;9326;49.468;11.008;2023-06-24T07:37:00;4.17;;;3.80;;
18399;SDS011;9326;49.468;11.008;2023-06-24T07:39:27;3.87;;;3.50;;
18399;SDS011;9326;49.468;11.008;2023-06-24T07:41:54;4.87;;;4.40;;
18399;SDS011;9326;49.468;11.008;2023-06-24T07:44:21;4.20;;;3.90;;
18399;SDS011;9326;49.468;11.008;2023-06-24T07:46:48;7.30;;;3.70;;
18399;SDS011;9326;49.468;11.008;2023-06-24T07:49:16;4.03;;;3.63;;
18399;SDS011;9326;49.468;11.008;2023-06-24T07:51:43;5.00;;;3.70;;
18399;SDS011;9326;49.468;11.008;2023-06-24T07:54:12;4.00;;;3.37;;
18399;SDS011;9326;49.468;11.008;2023-06-24T07:56:39;5.47;;;4.97;;
18399;SDS011;9326;49.468;11.008;2023-06-24T07:59:07;5.00;;;4.50;;
18399;SDS011;9326;49.468;11.008;2023-06-24T08:01:34;3.93;;;3.60;;
18399;SDS011;9326;49.468;11.008;2023-06-24T08:04:01;4.30;;;3.90;;
18399;SDS011;9326;49.468;11.008;2023-06-24T08:06:28;4.07;;;3.67;;
18399;SDS011;9326;49.468;11.008;2023-06-24T08:08:55;4.40;;;4.00;;
18399;SDS011;9326;49.468;11.008;2023-06-24T08:11:23;4.77;;;4.23;;
18399;SDS011;9326;49.468;11.008;2023-06-24T08:13:50;4.40;;;4.00;;
18399;SDS011;9326;49.468;11.008;2023-06-24T08:16:17;15.93;;;5.10;;
18399;SDS011;9326;49.468;11.008;2023-06-24T08:18:45;5.20;;;4.70;;
18399;SDS011;9326;49.468;11.008;2023-06-24T08:21:12;5.43;;;4.30;;
18399;SDS011;9326;49.468;11.008;2023-06-24T08:23:39;4.73;;;4.20;;
18399;SDS011;9326;49.468;11.008;2023-06-24T08:26:06;4.87;;;4.47;;
18399;SDS011;9326;49.468;11.008;2023-06-24T08:28:35;5.07;;;4.50;;
18399;SDS011;9326;49.468;11.008;2023-06-24T08:31:02;4.90;;;4.47;;
18399;SDS011;9326;49.468;11.008;2023-06-24T08:33:29;4.87;;;4.43;;
18399;SDS011;9326;49.468;11.008;2023-06-24T08:35:56;4.80;;;4.37;;
18399;SDS011;9326;49.468;11.008;2023-06-24T08:38:23;5.33;;;4.83;;
18399;SDS011;9326;49.468;11.008;2023-06-24T08:40:50;5.13;;;4.30;;
18399;SDS011;9326;49.468;11.008;2023-06-24T08:43:18;4.90;;;4.50;;
18399;SDS011;9326;49.468;11.008;2023-06-24T08:45:46;5.90;;;4.83;;
18399;SDS011;9326;49.468;11.008;2023-06-24T08:48:14;4.90;;;4.40;;
18399;SDS011;9326;49.468;11.008;2023-06-24T08:50:43;4.50;;;4.10;;
18399;SDS011;9326;49.468;11.008;2023-06-24T08:53:11;4.67;;;4.30;;
18399;SDS011;9326;49.468;11.008;2023-06-24T08:55:39;3.97;;;3.50;;
18399;SDS011;9326;49.468;11.008;2023-06-24T08:58:07;4.30;;;3.90;;
18399;SDS011;9326;49.468;11.008;2023-06-24T09:00:34;5.13;;;4.00;;
18399;SDS011;9326;49.468;11.008;2023-06-24T09:03:02;4.47;;;4.03;;
18399;SDS011;9326;49.468;11.008;2023-06-24T09:05:29;4.07;;;3.67;;
18399;SDS011;9326;49.468;11.008;2023-06-24T09:07:56;4.20;;;3.77;;
18399;SDS011;9326;49.468;11.008;2023-06-24T09:10:30;3.47;;;3.27;;
18399;SDS011;9326;49.468;11.008;2023-06-24T09:12:58;4.17;;;3.27;;
18399;SDS011;9326;49.468;11.008;2023-06-24T09:15:25;4.77;;;3.60;;
18399;SDS011;9326;49.468;11.008;2023-06-24T09:17:52;4.10;;;3.30;;
18399;SDS011;9326;49.468;11.008;2023-06-24T09:20:20;3.57;;;3.30;;
18399;SDS011;9326;49.468;11.008;2023-06-24T09:22:47;3.20;;;3.00;;
18399;SDS011;9326;49.468;11.008;2023-06-24T09:25:16;3.17;;;2.87;;
18399;SDS011;9326;49.468;11.008;2023-06-24T09:27:47;3.30;;;3.00;;
18399;SDS011;9326;49.468;11.008;2023-06-24T09:30:17;3.40;;;3.10;;
18399;SDS011;9326;49.468;11.008;2023-06-24T09:32:45;3.50;;;3.20;;
18399;SDS011;9326;49.468;11.008;2023-06-24T09:35:12;3.17;;;2.83;;
18399;SDS011;9326;49.468;11.008;2023-06-24T09:37:40;3.33;;;2.97;;
18399;SDS011;9326;49.468;11.008;2023-06-24T09:40:08;3.43;;;3.13;;
18399;SDS011;9326;49.468;11.008;2023-06-24T09:42:35;3.70;;;2.93;;
18399;SDS011;9326;49.468;11.008;2023-06-24T09:45:05;3.83;;;2.90;;
18399;SDS011;9326;49.468;11.008;2023-06-24T09:47:32;2.97;;;2.77;;
18399;SDS011;9326;49.468;11.008;2023-06-24T09:49:59;2.67;;;2.33;;
18399;SDS011;9326;49.468;11.008;2023-06-24T09:52:27;3.30;;;3.00;;
18399;SDS011;9326;49.468;11.008;2023-06-24T09:54:55;3.67;;;2.73;;
18399;SDS011;9326;49.468;11.008;2023-06-24T09:57:24;3.27;;;3.00;;
18399;SDS011;9326;49.468;11.008;2023-06-24T09:59:52;4.67;;;3.37;;
18399;SDS011;9326;49.468;11.008;2023-06-24T10:02:19;3.30;;;2.77;;
18399;SDS011;9326;49.468;11.008;2023-06-24T10:04:46;2.73;;;2.53;;
18399;SDS011;9326;49.468;11.008;2023-06-24T10:07:15;3.63;;;3.33;;
18399;SDS011;9326;49.468;11.008;2023-06-24T10:09:42;2.70;;;2.50;;
18399;SDS011;9326;49.468;11.008;2023-06-24T10:12:11;3.67;;;2.70;;
18399;SDS011;9326;49.468;11.008;2023-06-24T10:14:38;2.90;;;2.70;;
18399;SDS011;9326;49.468;11.008;2023-06-24T10:17:05;2.30;;;2.20;;
18399;SDS011;9326;49.468;11.008;2023-06-24T10:19:37;2.90;;;2.70;;
18399;SDS011;9326;49.468;11.008;2023-06-24T10:22:04;2.93;;;2.73;;
18399;SDS011;9326;49.468;11.008;2023-06-24T10:24:34;3.43;;;3.13;;
18399;SDS011;9326;49.468;11.008;2023-06-24T10:27:02;3.03;;;2.80;;
18399;SDS011;9326;49.468;11.008;2023-06-24T10:29:34;2.80;;;2.60;;
18399;SDS011;9326;49.468;11.008;2023-06-24T10:32:02;2.83;;;2.63;;
18399;SDS011;9326;49.468;11.008;2023-06-24T10:34:30;3.40;;;2.80;;
18399;SDS011;9326;49.468;11.008;2023-06-24T10:36:58;2.97;;;2.73;;
18399;SDS011;9326;49.468;11.008;2023-06-24T10:39:39;3.50;;;2.87;;
18399;SDS011;9326;49.468;11.008;2023-06-24T10:44:53;3.40;;;3.10;;
18399;SDS011;9326;49.468;11.008;2023-06-24T10:47:21;2.90;;;2.60;;
18399;SDS011;9326;49.468;11.008;2023-06-24T10:49:49;3.30;;;3.00;;
18399;SDS011;9326;49.468;11.008;2023-06-24T10:52:17;3.27;;;3.03;;
18399;SDS011;9326;49.468;11.008;2023-06-24T10:54:45;3.60;;;3.00;;
18399;SDS011;9326;49.468;11.008;2023-06-24T10:57:12;3.17;;;2.90;;
18399;SDS011;9326;49.468;11.008;2023-06-24T10:59:39;4.03;;;3.27;;
18399;SDS011;9326;49.468;11.008;2023-06-24T11:02:08;2.87;;;2.63;;
18399;SDS011;9326;49.468;11.008;2023-06-24T11:04:42;4.57;;;3.30;;
18399;SDS011;9326;49.468;11.008;2023-06-24T11:07:09;3.50;;;3.20;;
18399;SDS011;9326;49.468;11.008;2023-06-24T11:09:36;3.70;;;2.73;;
18399;SDS011;9326;49.468;11.008;2023-06-24T11:12:03;3.37;;;3.07;;
18399;SDS011;9326;49.468;11.008;2023-06-24T11:14:32;3.83;;;3.53;;
18399;SDS011;9326;49.468;11.008;2023-06-24T11:17:00;3.27;;;2.97;;
18399;SDS011;9326;49.468;11.008;2023-06-24T11:19:28;3.77;;;3.47;;
18399;SDS011;9326;49.468;11.008;2023-06-24T11:21:59;3.23;;;2.93;;
18399;SDS011;9326;49.468;11.008;2023-06-24T11:24:26;3.80;;;2.80;;
18399;SDS011;9326;49.468;11.008;2023-06-24T11:26:53;3.20;;;2.90;;
18399;SDS011;9326;49.468;11.008;2023-06-24T11:29:20;3.87;;;3.10;;
18399;SDS011;9326;49.468;11.008;2023-06-24T11:31:47;2.63;;;2.43;;
18399;SDS011;9326;49.468;11.008;2023-06-24T11:34:15;3.00;;;2.80;;
18399;SDS011;9326;49.468;11.008;2023-06-24T11:36:43;3.27;;;2.97;;
18399;SDS011;9326;49.468;11.008;2023-06-24T11:39:19;2.97;;;2.67;;
18399;SDS011;9326;49.468;11.008;2023-06-24T11:41:47;4.40;;;3.10;;
18399;SDS011;9326;49.468;11.008;2023-06-24T11:44:14;3.93;;;2.97;;
18399;SDS011;9326;49.468;11.008;2023-06-24T11:46:41;2.97;;;2.67;;
18399;SDS011;9326;49.468;11.008;2023-06-24T11:49:08;3.50;;;2.90;;
18399;SDS011;9326;49.468;11.008;2023-06-24T11:51:36;2.73;;;2.43;;
18399;SDS011;9326;49.468;11.008;2023-06-24T11:54:05;2.53;;;2.33;;
18399;SDS011;9326;49.468;11.008;2023-06-24T11:56:35;2.80;;;2.60;;
18399;SDS011;9326;49.468;11.008;2023-06-24T11:59:03;3.00;;;2.80;;
18399;SDS011;9326;49.468;11.008;2023-06-24T12:01:31;2.73;;;2.50;;
18399;SDS011;9326;49.468;11.008;2023-06-24T12:03:59;3.03;;;2.73;;
18399;SDS011;9326;49.468;11.008;2023-06-24T12:06:26;3.87;;;2.70;;
18399;SDS011;9326;49.468;11.008;2023-06-24T12:08:53;4.17;;;2.27;;
18399;SDS011;9326;49.468;11.008;2023-06-24T12:11:22;3.13;;;2.60;;
18399;SDS011;9326;49.468;11.008;2023-06-24T12:13:49;3.10;;;2.80;;
18399;SDS011;9326;49.468;11.008;2023-06-24T12:16:16;3.20;;;2.90;;
18399;SDS011;9326;49.468;11.008;2023-06-24T12:18:43;4.00;;;3.17;;
18399;SDS011;9326;49.468;11.008;2023-06-24T12:21:10;3.10;;;2.90;;
18399;SDS011;9326;49.468;11.008;2023-06-24T12:23:37;3.23;;;2.93;;
18399;SDS011;9326;49.468;11.008;2023-06-24T12:26:04;2.50;;;2.30;;
18399;SDS011;9326;49.468;11.008;2023-06-24T12:28:32;2.73;;;2.50;;
18399;SDS011;9326;49.468;11.008;2023-06-24T12:30:59;2.97;;;2.67;;
18399;SDS011;9326;49.468;11.008;2023-06-24T12:33:26;3.17;;;2.60;;
18399;SDS011;9326;49.468;11.008;2023-06-24T12:35:53;3.27;;;2.63;;
18399;SDS011;9326;49.468;11.008;2023-06-24T12:38:20;2.50;;;2.30;;
18399;SDS011;9326;49.468;11.008;2023-06-24T12:40:47;2.80;;;2.60;;
18399;SDS011;9326;49.468;11.008;2023-06-24T12:43:15;2.63;;;2.43;;
18399;SDS011;9326;49.468;11.008;2023-06-24T12:45:43;2.47;;;2.27;;
18399;SDS011;9326;49.468;11.008;2023-06-24T12:48:10;2.43;;;2.23;;
18399;SDS011;9326;49.468;11.008;2023-06-24T12:50:37;2.67;;;2.30;;
18399;SDS011;9326;49.468;11.008;2023-06-24T12:53:04;2.87;;;2.67;;
18399;SDS011;9326;49.468;11.008;2023-06-24T12:55:31;2.83;;;2.63;;
18399;SDS011;9326;49.468;11.008;2023-06-24T12:57:58;2.60;;;2.40;;
18399;SDS011;9326;49.468;11.008;2023-06-24T13:00:25;2.90;;;2.60;;
18399;SDS011;9326;49.468;11.008;2023-06-24T13:02:54;2.67;;;2.50;;
18399;SDS011;9326;49.468;11.008;2023-06-24T13:05:21;2.60;;;2.40;;
18399;SDS011;9326;49.468;11.008;2023-06-24T13:07:48;3.07;;;2.50;;
18399;SDS011;9326;49.468;11.008;2023-06-24T13:10:16;4.23;;;2.53;;
18399;SDS011;9326;49.468;11.008;2023-06-24T13:12:43;3.20;;;2.50;;
18399;SDS011;9326;49.468;11.008;2023-06-24T13:15:10;3.00;;;2.60;;
18399;SDS011;9326;49.468;11.008;2023-06-24T13:17:38;3.50;;;2.40;;
18399;SDS011;9326;49.468;11.008;2023-06-24T13:20:09;2.50;;;2.30;;
18399;SDS011;9326;49.468;11.008;2023-06-24T13:22:36;3.50;;;3.20;;
18399;SDS011;9326;49.468;11.008;2023-06-24T13:25:04;2.80;;;2.60;;
18399;SDS011;9326;49.468;11.008;2023-06-24T13:27:31;3.30;;;3.00;;
18399;SDS011;9326;49.468;11.008;2023-06-24T13:29:58;3.40;;;3.10;;
18399;SDS011;9326;49.468;11.008;2023-06-24T13:32:25;3.13;;;2.70;;
18399;SDS011;9326;49.468;11.008;2023-06-24T13:34:52;3.27;;;2.70;;
18399;SDS011;9326;49.468;11.008;2023-06-24T13:37:20;3.00;;;2.70;;
18399;SDS011;9326;49.468;11.008;2023-06-24T13:39:47;2.57;;;2.40;;
18399;SDS011;9326;49.468;11.008;2023-06-24T13:42:15;3.13;;;2.93;;
18399;SDS011;9326;49.468;11.008;2023-06-24T13:44:42;3.27;;;2.97;;
18399;SDS011;9326;49.468;11.008;2023-06-24T13:47:09;3.50;;;2.70;;
18399;SDS011;9326;49.468;11.008;2023-06-24T13:49:36;2.90;;;2.70;;
18399;SDS011;9326;49.468;11.008;2023-06-24T13:52:03;3.97;;;2.83;;
18399;SDS011;9326;49.468;11.008;2023-06-24T13:54:31;4.07;;;2.50;;
18399;SDS011;9326;49.468;11.008;2023-06-24T13:57:00;4.80;;;2.73;;
18399;SDS011;9326;49.468;11.008;2023-06-24T13:59:27;3.20;;;2.90;;
18399;SDS011;9326;49.468;11.008;2023-06-24T14:01:54;2.90;;;2.60;;
18399;SDS011;9326;49.468;11.008;2023-06-24T14:04:21;3.83;;;3.20;;
18399;SDS011;9326;49.468;11.008;2023-06-24T14:06:48;3.60;;;2.87;;
18399;SDS011;9326;49.468;11.008;2023-06-24T14:09:16;5.80;;;3.53;;
18399;SDS011;9326;49.468;11.008;2023-06-24T14:11:44;2.83;;;2.63;;
18399;SDS011;9326;49.468;11.008;2023-06-24T14:14:11;3.50;;;3.03;;
18399;SDS011;9326;49.468;11.008;2023-06-24T14:16:38;3.03;;;2.73;;
18399;SDS011;9326;49.468;11.008;2023-06-24T14:19:05;2.87;;;2.67;;
18399;SDS011;9326;49.468;11.008;2023-06-24T14:21:32;3.20;;;2.70;;
18399;SDS011;9326;49.468;11.008;2023-06-24T14:24:02;3.30;;;3.00;;
18399;SDS011;9326;49.468;11.008;2023-06-24T14:26:30;2.80;;;2.60;;
18399;SDS011;9326;49.468;11.008;2023-06-24T14:28:58;3.10;;;2.90;;
18399;SDS011;9326;49.468;11.008;2023-06-24T14:31:26;2.60;;;2.40;;
18399;SDS011;9326;49.468;11.008;2023-06-24T14:33:53;3.40;;;3.20;;
18399;SDS011;9326;49.468;11.008;2023-06-24T14:36:20;3.83;;;2.60;;
18399;SDS011;9326;49.468;11.008;2023-06-24T14:38:47;3.00;;;2.80;;
18399;SDS011;9326;49.468;11.008;2023-06-24T14:41:14;3.50;;;2.80;;
18399;SDS011;9326;49.468;11.008;2023-06-24T14:43:41;2.73;;;2.53;;
18399;SDS011;9326;49.468;11.008;2023-06-24T14:46:10;3.10;;;2.90;;
18399;SDS011;9326;49.468;11.008;2023-06-24T14:48:37;2.67;;;2.47;;
18399;SDS011;9326;49.468;11.008;2023-06-24T14:51:04;2.83;;;2.63;;
18399;SDS011;9326;49.468;11.008;2023-06-24T14:53:31;5.23;;;2.77;;
18399;SDS011;9326;49.468;11.008;2023-06-24T14:55:58;2.67;;;2.47;;
18399;SDS011;9326;49.468;11.008;2023-06-24T14:58:25;3.07;;;2.87;;
18399;SDS011;9326;49.468;11.008;2023-06-24T15:00:52;3.77;;;2.70;;
18399;SDS011;9326;49.468;11.008;2023-06-24T15:03:20;4.27;;;2.63;;
18399;SDS011;9326;49.468;11.008;2023-06-24T15:05:47;2.77;;;2.57;;
18399;SDS011;9326;49.468;11.008;2023-06-24T15:08:14;3.57;;;2.97;;
18399;SDS011;9326;49.468;11.008;2023-06-24T15:10:41;3.13;;;2.83;;
18399;SDS011;9326;49.468;11.008;2023-06-24T15:13:08;3.10;;;2.80;;
18399;SDS011;9326;49.468;11.008;2023-06-24T15:15:35;3.43;;;2.37;;
18399;SDS011;9326;49.468;11.008;2023-06-24T15:18:02;4.53;;;2.70;;
18399;SDS011;9326;49.468;11.008;2023-06-24T15:20:32;2.90;;;2.70;;
18399;SDS011;9326;49.468;11.008;2023-06-24T15:22:59;2.90;;;2.20;;
18399;SDS011;9326;49.468;11.008;2023-06-24T15:25:26;3.43;;;2.60;;
18399;SDS011;9326;49.468;11.008;2023-06-24T15:27:53;2.90;;;2.57;;
18399;SDS011;9326;49.468;11.008;2023-06-24T15:30:20;2.73;;;2.53;;
18399;SDS011;9326;49.468;11.008;2023-06-24T15:32:49;2.73;;;2.53;;
18399;SDS011;9326;49.468;11.008;2023-06-24T15:35:16;2.80;;;2.50;;
18399;SDS011;9326;49.468;11.008;2023-06-24T15:37:45;2.77;;;2.53;;
18399;SDS011;9326;49.468;11.008;2023-06-24T15:40:12;2.60;;;2.40;;
18399;SDS011;9326;49.468;11.008;2023-06-24T15:42:39;2.77;;;2.57;;
18399;SDS011;9326;49.468;11.008;2023-06-24T15:45:06;3.93;;;3.07;;
18399;SDS011;9326;49.468;11.008;2023-06-24T15:47:33;3.07;;;2.77;;
18399;SDS011;9326;49.468;11.008;2023-06-24T15:50:00;3.87;;;2.50;;
18399;SDS011;9326;49.468;11.008;2023-06-24T15:52:27;2.60;;;2.40;;
18399;SDS011;9326;49.468;11.008;2023-06-24T15:54:56;3.43;;;2.50;;
18399;SDS011;9326;49.468;11.008;2023-06-24T15:57:23;2.43;;;2.23;;
18399;SDS011;9326;49.468;11.008;2023-06-24T15:59:50;2.80;;;2.60;;
18399;SDS011;9326;49.468;11.008;2023-06-24T16:02:17;2.93;;;2.67;;
18399;SDS011;9326;49.468;11.008;2023-06-24T16:04:45;4.03;;;2.57;;
18399;SDS011;9326;49.468;11.008;2023-06-24T16:07:12;3.37;;;2.60;;
18399;SDS011;9326;49.468;11.008;2023-06-24T16:09:39;2.73;;;2.53;;
18399;SDS011;9326;49.468;11.008;2023-06-24T16:12:08;3.03;;;2.73;;
18399;SDS011;9326;49.468;11.008;2023-06-24T16:14:35;2.47;;;2.27;;
18399;SDS011;9326;49.468;11.008;2023-06-24T16:17:02;3.07;;;2.77;;
18399;SDS011;9326;49.468;11.008;2023-06-24T16:19:29;4.00;;;2.97;;
18399;SDS011;9326;49.468;11.008;2023-06-24T16:21:56;2.80;;;2.60;;
18399;SDS011;9326;49.468;11.008;2023-06-24T16:24:23;3.10;;;2.80;;
18399;SDS011;9326;49.468;11.008;2023-06-24T16:26:52;4.13;;;2.80;;
18399;SDS011;9326;49.468;11.008;2023-06-24T16:29:20;2.80;;;2.60;;
18399;SDS011;9326;49.468;11.008;2023-06-24T16:31:47;3.20;;;2.90;;
18399;SDS011;9326;49.468;11.008;2023-06-24T16:34:14;4.77;;;2.83;;
18399;SDS011;9326;49.468;11.008;2023-06-24T16:36:41;2.70;;;2.50;;
18399;SDS011;9326;49.468;11.008;2023-06-24T16:39:09;4.37;;;3.37;;
18399;SDS011;9326;49.468;11.008;2023-06-24T16:41:36;3.20;;;3.00;;
18399;SDS011;9326;49.468;11.008;2023-06-24T16:44:03;3.20;;;2.87;;
18399;SDS011;9326;49.468;11.008;2023-06-24T16:46:31;3.10;;;2.80;;
18399;SDS011;9326;49.468;11.008;2023-06-24T16:48:58;3.00;;;2.70;;
18399;SDS011;9326;49.468;11.008;2023-06-24T16:51:31;3.00;;;2.80;;
18399;SDS011;9326;49.468;11.008;2023-06-24T16:53:58;4.40;;;3.17;;
18399;SDS011;9326;49.468;11.008;2023-06-24T16:56:25;3.37;;;3.10;;
18399;SDS011;9326;49.468;11.008;2023-06-24T16:58:52;3.47;;;3.17;;
18399;SDS011;9326;49.468;11.008;2023-06-24T17:01:19;3.20;;;2.93;;
18399;SDS011;9326;49.468;11.008;2023-06-24T17:03:47;2.83;;;2.63;;
18399;SDS011;9326;49.468;11.008;2023-06-24T17:06:14;3.10;;;2.80;;
18399;SDS011;9326;49.468;11.008;2023-06-24T17:08:41;3.77;;;2.97;;
18399;SDS011;9326;49.468;11.008;2023-06-24T17:11:08;3.30;;;3.00;;
18399;SDS011;9326;49.468;11.008;2023-06-24T17:13:35;3.90;;;3.60;;
18399;SDS011;9326;49.468;11.008;2023-06-24T17:16:03;3.40;;;3.10;;
18399;SDS011;9326;49.468;11.008;2023-06-24T17:18:30;3.23;;;2.93;;
18399;SDS011;9326;49.468;11.008;2023-06-24T17:20:58;4.47;;;3.03;;
18399;SDS011;9326;49.468;11.008;2023-06-24T17:23:25;3.27;;;2.97;;
18399;SDS011;9326;49.468;11.008;2023-06-24T17:25:53;3.30;;;3.00;;
18399;SDS011;9326;49.468;11.008;2023-06-24T17:28:20;3.27;;;3.07;;
18399;SDS011;9326;49.468;11.008;2023-06-24T17:30:47;3.20;;;2.73;;
18399;SDS011;9326;49.468;11.008;2023-06-24T17:33:14;3.57;;;3.27;;
18399;SDS011;9326;49.468;11.008;2023-06-24T17:35:41;3.63;;;3.33;;
18399;SDS011;9326;49.468;11.008;2023-06-24T17:38:11;3.27;;;2.97;;
18399;SDS011;9326;49.468;11.008;2023-06-24T17:40:39;3.50;;;3.20;;
18399;SDS011;9326;49.468;11.008;2023-06-24T17:43:06;5.17;;;3.50;;
18399;SDS011;9326;49.468;11.008;2023-06-24T17:45:33;4.30;;;3.50;;
18399;SDS011;9326;49.468;11.008;2023-06-24T17:48:01;3.67;;;3.30;;
18399;SDS011;9326;49.468;11.008;2023-06-24T17:50:30;4.87;;;3.30;;
18399;SDS011;9326;49.468;11.008;2023-06-24T17:52:57;4.37;;;3.30;;
18399;SDS011;9326;49.468;11.008;2023-06-24T17:55:26;4.43;;;3.13;;
18399;SDS011;9326;49.468;11.008;2023-06-24T17:57:57;3.07;;;2.87;;
18399;SDS011;9326;49.468;11.008;2023-06-24T18:00:24;3.43;;;3.20;;
18399;SDS011;9326;49.468;11.008;2023-06-24T18:02:51;4.07;;;3.13;;
18399;SDS011;9326;49.468;11.008;2023-06-24T18:05:18;3.43;;;3.13;;
18399;SDS011;9326;49.468;11.008;2023-06-24T18:07:45;3.70;;;3.40;;
18399;SDS011;9326;49.468;11.008;2023-06-24T18:10:12;4.47;;;3.80;;
18399;SDS011;9326;49.468;11.008;2023-06-24T18:12:40;3.83;;;3.43;;
18399;SDS011;9326;49.468;11.008;2023-06-24T18:15:08;4.27;;;3.50;;
18399;SDS011;9326;49.468;11.008;2023-06-24T18:17:35;4.50;;;3.27;;
18399;SDS011;9326;49.468;11.008;2023-06-24T18:20:02;4.13;;;3.33;;
18399;SDS011;9326;49.468;11.008;2023-06-24T18:22:29;3.90;;;3.43;;
18399;SDS011;9326;49.468;11.008;2023-06-24T18:24:56;3.50;;;3.20;;
18399;SDS011;9326;49.468;11.008;2023-06-24T18:27:23;3.90;;;3.30;;
18399;SDS011;9326;49.468;11.008;2023-06-24T18:29:51;3.47;;;3.23;;
18399;SDS011;9326;49.468;11.008;2023-06-24T18:32:18;4.80;;;3.53;;
18399;SDS011;9326;49.468;11.008;2023-06-24T18:34:46;4.63;;;3.43;;
18399;SDS011;9326;49.468;11.008;2023-06-24T18:37:13;3.93;;;3.47;;
18399;SDS011;9326;49.468;11.008;2023-06-24T18:39:40;4.50;;;3.63;;
18399;SDS011;9326;49.468;11.008;2023-06-24T18:42:09;4.83;;;3.50;;
18399;SDS011;9326;49.468;11.008;2023-06-24T18:44:37;5.07;;;3.90;;
18399;SDS011;9326;49.468;11.008;2023-06-24T18:47:05;3.83;;;3.43;;
18399;SDS011;9326;49.468;11.008;2023-06-24T18:49:32;4.60;;;3.60;;
18399;SDS011;9326;49.468;11.008;2023-06-24T18:51:59;3.60;;;3.30;;
18399;SDS011;9326;49.468;11.008;2023-06-24T18:54:26;4.87;;;3.80;;
18399;SDS011;9326;49.468;11.008;2023-06-24T18:56:54;5.50;;;4.10;;
18399;SDS011;9326;49.468;11.008;2023-06-24T18:59:21;5.47;;;4.70;;
18399;SDS011;9326;49.468;11.008;2023-06-24T19:01:48;6.00;;;4.50;;
18399;SDS011;9326;49.468;11.008;2023-06-24T19:04:16;5.53;;;5.00;;
18399;SDS011;9326;49.468;11.008;2023-06-24T19:06:43;5.50;;;5.00;;
18399;SDS011;9326;49.468;11.008;2023-06-24T19:09:10;4.90;;;4.37;;
18399;SDS011;9326;49.468;11.008;2023-06-24T19:11:37;5.20;;;4.77;;
18399;SDS011;9326;49.468;11.008;2023-06-24T19:14:06;4.83;;;4.30;;
18399;SDS011;9326;49.468;11.008;2023-06-24T19:16:33;4.90;;;3.97;;
18399;SDS011;9326;49.468;11.008;2023-06-24T19:19:00;5.40;;;4.00;;
18399;SDS011;9326;49.468;11.008;2023-06-24T19:21:29;4.70;;;4.27;;
18399;SDS011;9326;49.468;11.008;2023-06-24T19:23:56;4.80;;;4.40;;
18399;SDS011;9326;49.468;11.008;2023-06-24T19:26:23;4.97;;;4.40;;
18399;SDS011;9326;49.468;11.008;2023-06-24T19:28:51;5.57;;;4.00;;
18399;SDS011;9326;49.468;11.008;2023-06-24T19:31:18;6.33;;;4.20;;
18399;SDS011;9326;49.468;11.008;2023-06-24T19:33:45;4.63;;;3.90;;
18399;SDS011;9326;49.468;11.008;2023-06-24T19:36:12;4.67;;;4.00;;
18399;SDS011;9326;49.468;11.008;2023-06-24T19:38:40;7.00;;;5.77;;
18399;SDS011;9326;49.468;11.008;2023-06-24T19:41:07;7.40;;;4.77;;
18399;SDS011;9326;49.468;11.008;2023-06-24T19:43:34;5.80;;;5.23;;
18399;SDS011;9326;49.468;11.008;2023-06-24T19:46:04;6.53;;;5.43;;
18399;SDS011;9326;49.468;11.008;2023-06-24T19:48:31;5.83;;;4.73;;
18399;SDS011;9326;49.468;11.008;2023-06-24T19:50:58;6.77;;;4.60;;
18399;SDS011;9326;49.468;11.008;2023-06-24T19:53:25;6.63;;;4.73;;